createdAt,value
2018-03-14T00:00:05.993Z,26.77
2018-03-14T00:02:34.319Z,29.20
2018-03-14T00:05:06.364Z,25.00
2018-03-14T00:07:34.657Z,30.90
2018-03-14T00:10:06.357Z,25.17
2018-03-14T00:12:34.674Z,26.63
2018-03-14T00:15:06.967Z,29.37
2018-03-14T00:17:35.305Z,26.17
2018-03-14T00:20:07.167Z,24.40
2018-03-14T00:22:35.512Z,25.13
2018-03-14T00:25:05.756Z,27.70
2018-03-14T00:27:34.078Z,24.93
2018-03-14T00:30:05.748Z,23.20
2018-03-14T00:32:34.121Z,25.77
2018-03-14T00:35:05.461Z,26.27
2018-03-14T00:37:33.738Z,26.53
2018-03-14T00:40:08.665Z,21.53
2018-03-14T00:42:37.086Z,24.17
2018-03-14T00:45:05.665Z,24.33
2018-03-14T00:47:35.401Z,24.07
2018-03-14T00:50:07.745Z,26.60
2018-03-14T00:52:36.027Z,22.63
2018-03-14T00:55:07.318Z,23.67
2018-03-14T00:57:35.669Z,26.13
2018-03-14T01:00:05.791Z,24.10
2018-03-14T01:02:34.066Z,25.47
2018-03-14T01:05:09.103Z,24.87
2018-03-14T01:07:37.371Z,25.53
2018-03-14T01:10:05.677Z,25.17
2018-03-14T01:12:34.138Z,23.03
2018-03-14T01:15:09.100Z,22.27
2018-03-14T01:17:37.434Z,25.33
2018-03-14T01:20:05.740Z,23.67
2018-03-14T01:22:34.308Z,22.93
2018-03-14T01:25:06.766Z,21.53
2018-03-14T01:27:35.043Z,22.80
2018-03-14T01:30:06.962Z,21.47
2018-03-14T01:32:35.243Z,24.10
2018-03-14T01:35:06.816Z,24.27
2018-03-14T01:37:35.090Z,21.77
2018-03-14T01:40:06.653Z,25.50
2018-03-14T01:42:34.969Z,24.90
2018-03-14T01:45:06.321Z,22.23
2018-03-14T01:47:35.754Z,22.63
2018-03-14T01:50:05.623Z,28.10
2018-03-14T01:52:33.933Z,24.00
2018-03-14T01:55:09.052Z,27.43
2018-03-14T01:57:37.661Z,23.77
2018-03-14T02:00:06.009Z,25.40
2018-03-14T02:02:35.397Z,26.40
2018-03-14T02:05:06.105Z,26.43
2018-03-14T02:07:34.381Z,27.93
2018-03-14T02:10:06.101Z,21.27
2018-03-14T02:12:34.513Z,24.87
2018-03-14T02:15:05.641Z,26.63
2018-03-14T02:17:34.869Z,23.77
2018-03-14T02:20:06.271Z,22.60
2018-03-14T02:22:34.913Z,25.13
2018-03-14T02:25:06.848Z,22.23
2018-03-14T02:27:35.222Z,24.83
2018-03-14T02:30:05.767Z,22.80
2018-03-14T02:32:34.044Z,22.67
2018-03-14T02:35:09.073Z,23.30
2018-03-14T02:37:37.356Z,24.13
2018-03-14T02:40:05.733Z,23.57
2018-03-14T02:42:34.011Z,23.50
2018-03-14T02:45:05.530Z,22.53
2018-03-14T02:47:34.057Z,24.30
2018-03-14T02:50:09.088Z,22.37
2018-03-14T02:52:37.368Z,20.93
2018-03-14T02:55:05.852Z,21.77
2018-03-14T02:57:34.128Z,20.80
2018-03-14T03:00:09.225Z,20.97
2018-03-14T03:02:37.508Z,20.40
2018-03-14T03:05:06.041Z,20.23
2018-03-14T03:07:34.284Z,19.83
2018-03-14T03:10:05.944Z,18.27
2018-03-14T03:12:34.241Z,19.27
2018-03-14T03:15:05.640Z,19.47
2018-03-14T03:17:33.923Z,19.03
2018-03-14T03:20:08.154Z,18.90
2018-03-14T03:22:36.445Z,19.57
2018-03-14T03:25:06.628Z,18.30
2018-03-14T03:27:34.896Z,17.83
2018-03-14T03:30:05.992Z,20.30
2018-03-14T03:32:34.273Z,18.27
2018-03-14T03:35:07.283Z,19.03
2018-03-14T03:37:35.563Z,18.43
2018-03-14T03:40:07.057Z,18.43
2018-03-14T03:42:35.364Z,19.80
2018-03-14T03:45:07.172Z,17.00
2018-03-14T03:47:35.469Z,18.67
2018-03-14T03:50:07.505Z,18.93
2018-03-14T03:52:35.974Z,18.90
2018-03-14T03:55:07.085Z,18.33
2018-03-14T03:57:35.645Z,17.50
2018-03-14T04:00:07.656Z,19.67
2018-03-14T04:02:35.959Z,19.20
2018-03-14T04:05:07.729Z,17.50
2018-03-14T04:07:36.186Z,18.77
2018-03-14T04:10:07.696Z,19.27
2018-03-14T04:12:36.436Z,19.13
2018-03-14T04:15:05.978Z,20.87
2018-03-14T04:17:34.897Z,21.73
2018-03-14T04:20:06.427Z,18.53
2018-03-14T04:22:35.164Z,20.33
2018-03-14T04:25:07.288Z,20.93
2018-03-14T04:27:35.593Z,21.37
2018-03-14T04:30:07.594Z,21.00
2018-03-14T04:32:35.885Z,20.03
2018-03-14T04:35:05.771Z,21.07
2018-03-14T04:37:34.052Z,22.23
2018-03-14T04:40:05.500Z,21.33
2018-03-14T04:42:33.804Z,18.97
2018-03-14T04:45:07.379Z,21.27
2018-03-14T04:47:35.872Z,21.17
2018-03-14T04:50:05.873Z,20.40
2018-03-14T04:52:35.092Z,24.17
2018-03-14T04:55:07.084Z,22.57
2018-03-14T04:57:39.322Z,23.03
2018-03-14T05:00:07.624Z,26.80
2018-03-14T05:02:35.896Z,24.07
2018-03-14T05:05:07.499Z,25.33
2018-03-14T05:07:35.912Z,25.03
2018-03-14T05:10:08.075Z,24.30
2018-03-14T05:12:36.349Z,23.17
2018-03-14T05:15:06.573Z,25.60
2018-03-14T05:17:34.846Z,25.60
2018-03-14T05:20:06.640Z,26.37
2018-03-14T05:22:35.333Z,25.13
2018-03-14T05:25:07.448Z,25.60
2018-03-14T05:27:35.734Z,28.33
2018-03-14T05:30:07.904Z,25.27
2018-03-14T05:32:36.179Z,28.63
2018-03-14T05:35:07.630Z,33.03
2018-03-14T05:37:36.082Z,30.97
2018-03-14T05:40:07.541Z,32.60
2018-03-14T05:42:35.842Z,33.23
2018-03-14T05:45:05.951Z,32.40
2018-03-14T05:47:34.954Z,33.33
2018-03-14T05:50:05.950Z,34.80
2018-03-14T05:52:34.378Z,35.17
2018-03-14T05:55:09.882Z,35.10
2018-03-14T05:57:38.169Z,35.83
2018-03-14T06:00:06.448Z,34.90
2018-03-14T06:02:35.021Z,41.43
2018-03-14T06:05:07.482Z,35.33
2018-03-14T06:07:35.811Z,37.50
2018-03-14T06:10:07.030Z,36.20
2018-03-14T06:12:35.309Z,36.13
2018-03-14T06:15:05.951Z,41.00
2018-03-14T06:17:34.522Z,35.47
2018-03-14T06:20:06.161Z,38.30
2018-03-14T06:22:34.472Z,37.43
2018-03-14T06:25:05.806Z,38.70
2018-03-14T06:27:34.177Z,38.30
2018-03-14T06:30:08.098Z,37.97
2018-03-14T06:32:36.453Z,40.67
2018-03-14T06:35:06.357Z,40.23
2018-03-14T06:37:34.895Z,44.40
2018-03-14T06:40:06.956Z,40.50
2018-03-14T06:42:35.281Z,38.73
2018-03-14T06:45:05.958Z,40.23
2018-03-14T06:47:34.231Z,39.87
2018-03-14T06:50:06.326Z,39.30
2018-03-14T06:52:34.617Z,41.60
2018-03-14T06:55:06.207Z,40.63
2018-03-14T06:57:34.696Z,41.27
2018-03-14T07:00:17.921Z,38.37
2018-03-14T07:02:49.034Z,39.90
2018-03-14T07:05:29.133Z,41.03
2018-03-14T07:07:57.407Z,41.30
2018-03-14T07:10:26.079Z,42.00
2018-03-14T07:12:55.173Z,36.37
2018-03-14T07:15:23.508Z,39.60
2018-03-14T07:17:51.814Z,41.13
2018-03-14T07:20:20.281Z,42.53
2018-03-14T07:22:48.586Z,43.10
2018-03-14T07:25:16.864Z,40.87
2018-03-14T07:27:45.174Z,45.77
2018-03-14T07:30:13.472Z,38.63
2018-03-14T07:32:42.717Z,44.80
2018-03-14T07:35:10.989Z,39.17
2018-03-14T07:37:39.281Z,45.03
2018-03-14T07:40:07.601Z,42.40
2018-03-14T07:42:36.738Z,44.47
2018-03-14T07:45:06.540Z,40.37
2018-03-14T07:47:34.832Z,43.07
2018-03-14T07:50:06.080Z,44.47
2018-03-14T07:52:34.386Z,40.90
2018-03-14T07:55:05.953Z,36.37
2018-03-14T07:57:34.502Z,42.53
2018-03-14T08:00:09.694Z,38.03
2018-03-14T08:02:38.017Z,36.53
2018-03-14T08:05:06.294Z,35.83
2018-03-14T08:07:34.605Z,38.50
2018-03-14T08:10:06.360Z,37.73
2018-03-14T08:12:34.733Z,38.07
2018-03-14T08:15:06.333Z,32.00
2018-03-14T08:17:34.646Z,36.73
2018-03-14T08:20:06.766Z,36.33
2018-03-14T08:22:35.082Z,33.67
2018-03-14T08:25:07.212Z,35.97
2018-03-14T08:27:35.512Z,34.57
2018-03-14T08:30:06.835Z,34.80
2018-03-14T08:32:35.145Z,37.70
2018-03-14T08:35:07.089Z,35.23
2018-03-14T08:37:35.392Z,32.73
2018-03-14T08:40:06.713Z,30.17
2018-03-14T08:42:35.026Z,31.20
2018-03-14T08:45:07.233Z,26.83
2018-03-14T08:47:35.528Z,25.53
2018-03-14T08:50:08.832Z,27.30
2018-03-14T08:52:37.112Z,26.27
2018-03-14T08:55:07.158Z,28.27
2018-03-14T08:57:35.453Z,30.33
2018-03-14T09:00:07.380Z,30.57
2018-03-14T09:02:35.665Z,29.17
2018-03-14T09:05:06.999Z,29.90
2018-03-14T09:07:35.273Z,27.00
2018-03-14T09:10:06.474Z,28.47
2018-03-14T09:12:34.728Z,29.30
2018-03-14T09:15:08.829Z,26.03
2018-03-14T09:17:37.122Z,28.40
2018-03-14T09:20:06.559Z,27.93
2018-03-14T09:22:35.062Z,23.87
2018-03-14T09:25:07.083Z,28.37
2018-03-14T09:30:11.009Z,24.83
2018-03-14T09:32:39.313Z,25.60
2018-03-14T09:35:07.762Z,24.50
2018-03-14T09:37:36.045Z,24.73
2018-03-14T09:40:06.256Z,23.57
2018-03-14T09:42:34.544Z,24.20
2018-03-14T09:45:09.520Z,23.27
2018-03-14T09:47:37.856Z,23.23
2018-03-14T09:50:06.142Z,22.47
2018-03-14T09:52:34.452Z,19.87
2018-03-14T09:55:09.551Z,22.67
2018-03-14T09:57:37.867Z,21.70
2018-03-14T10:00:06.182Z,23.50
2018-03-14T10:02:34.493Z,21.97
2018-03-14T10:05:06.273Z,21.13
2018-03-14T10:07:34.577Z,17.73
2018-03-14T10:10:06.025Z,20.10
2018-03-14T10:12:34.456Z,17.57
2018-03-14T10:15:05.973Z,17.47
2018-03-14T10:17:34.414Z,19.43
2018-03-14T10:20:06.123Z,18.03
2018-03-14T10:22:34.588Z,17.87
2018-03-14T10:25:09.626Z,17.43
2018-03-14T10:27:38.371Z,16.97
2018-03-14T10:30:06.677Z,15.33
2018-03-14T10:32:35.143Z,15.23
2018-03-14T10:35:07.332Z,17.23
2018-03-14T10:37:35.856Z,16.37
2018-03-14T10:40:07.150Z,17.00
2018-03-14T10:42:35.424Z,17.37
2018-03-14T10:45:06.751Z,16.60
2018-03-14T10:47:35.134Z,16.63
2018-03-14T10:50:06.218Z,16.70
2018-03-14T10:52:34.505Z,15.07
2018-03-14T10:55:06.069Z,17.50
2018-03-14T10:57:34.387Z,16.17
2018-03-14T11:00:05.854Z,16.43
2018-03-14T11:02:34.293Z,16.87
2018-03-14T11:05:09.348Z,15.43
2018-03-14T11:07:42.411Z,19.87
2018-03-14T11:10:10.720Z,20.47
2018-03-14T11:12:39.005Z,16.73
2018-03-14T11:15:07.314Z,17.87
2018-03-14T11:17:35.633Z,15.27
2018-03-14T11:20:06.949Z,15.57
2018-03-14T11:22:35.418Z,13.03
2018-03-14T11:25:07.416Z,11.03
2018-03-14T11:27:36.119Z,10.70
2018-03-14T11:30:08.957Z,13.43
2018-03-14T11:32:37.259Z,11.93
2018-03-14T11:35:07.417Z,25.27
2018-03-14T11:37:35.726Z,11.40
2018-03-14T11:40:07.538Z,16.03
2018-03-14T11:42:36.089Z,12.77
2018-03-14T11:45:08.305Z,11.43
2018-03-14T11:47:36.620Z,10.23
2018-03-14T11:50:06.832Z,15.73
2018-03-14T11:52:35.700Z,13.97
2018-03-14T11:55:07.397Z,11.37
2018-03-14T11:57:35.713Z,10.27
2018-03-14T12:00:07.327Z,11.00
2018-03-14T12:02:35.624Z,10.50
2018-03-14T12:05:07.916Z,9.13
2018-03-14T12:07:36.210Z,9.13
2018-03-14T12:10:07.432Z,9.17
2018-03-14T12:12:35.734Z,10.03
2018-03-14T12:15:08.056Z,9.70
2018-03-14T12:17:41.640Z,9.80
2018-03-14T12:20:09.937Z,8.80
2018-03-14T12:22:38.499Z,8.63
2018-03-14T12:25:06.800Z,8.23
2018-03-14T12:27:35.268Z,7.97
2018-03-14T12:30:06.700Z,7.87
2018-03-14T12:32:35.149Z,8.37
2018-03-14T12:35:07.188Z,8.23
2018-03-14T12:37:36.265Z,7.80
2018-03-14T12:40:07.608Z,7.93
2018-03-14T12:42:35.884Z,8.77
2018-03-14T12:45:07.209Z,8.87
2018-03-14T12:47:40.036Z,10.27
2018-03-14T12:50:08.339Z,9.90
2018-03-14T12:52:36.604Z,9.90
2018-03-14T12:55:06.962Z,10.10
2018-03-14T12:57:35.237Z,10.20
2018-03-14T13:00:07.087Z,9.47
2018-03-14T13:02:35.367Z,9.77
2018-03-14T13:05:06.964Z,8.93
2018-03-14T13:07:35.931Z,9.83
2018-03-14T13:10:07.748Z,9.23
2018-03-14T13:12:36.024Z,8.20
2018-03-14T13:15:07.765Z,9.03
2018-03-14T13:17:36.539Z,8.83
2018-03-14T13:20:08.255Z,9.57
2018-03-14T13:22:36.564Z,8.07
2018-03-14T13:25:08.293Z,8.13
2018-03-14T13:27:36.596Z,9.27
2018-03-14T13:30:09.054Z,8.70
2018-03-14T13:32:37.359Z,8.00
2018-03-14T13:35:06.470Z,8.73
2018-03-14T13:37:34.779Z,8.73
2018-03-14T13:40:09.978Z,10.00
2018-03-14T13:42:38.524Z,7.50
2018-03-14T13:45:06.798Z,8.23
2018-03-14T13:47:35.258Z,8.43
2018-03-14T13:50:06.486Z,12.50
2018-03-14T13:52:34.901Z,7.73
2018-03-14T13:55:06.265Z,10.37
2018-03-14T13:57:34.822Z,9.67
2018-03-14T14:00:09.964Z,9.57
2018-03-14T14:02:38.264Z,6.77
2018-03-14T14:05:06.541Z,7.60
2018-03-14T14:07:34.815Z,9.93
2018-03-14T14:10:09.850Z,8.63
2018-03-14T14:12:38.393Z,10.50
2018-03-14T14:15:06.697Z,8.70
2018-03-14T14:17:34.958Z,8.77
2018-03-14T14:20:09.988Z,7.80
2018-03-14T14:22:38.279Z,7.70
2018-03-14T14:25:06.592Z,7.87
2018-03-14T14:27:35.096Z,8.17
2018-03-14T14:30:07.139Z,7.63
2018-03-14T14:32:35.456Z,8.20
2018-03-14T14:35:06.853Z,7.40
2018-03-14T14:37:35.132Z,7.63
2018-03-14T14:40:07.354Z,7.87
2018-03-14T14:42:35.945Z,8.23
2018-03-14T14:45:07.994Z,7.87
2018-03-14T14:47:36.288Z,8.10
2018-03-14T14:50:08.196Z,8.37
2018-03-14T14:52:36.480Z,8.40
2018-03-14T14:55:06.567Z,7.27
2018-03-14T14:57:34.853Z,7.10
2018-03-14T15:00:10.022Z,8.07
2018-03-14T15:02:38.297Z,7.27
2018-03-14T15:05:07.353Z,8.07
2018-03-14T15:07:35.652Z,8.90
2018-03-14T15:10:07.198Z,7.23
2018-03-14T15:12:35.481Z,8.03
2018-03-14T15:15:06.692Z,6.77
2018-03-14T15:17:35.097Z,6.43
2018-03-14T15:20:06.874Z,6.80
2018-03-14T15:22:35.161Z,6.53
2018-03-14T15:25:06.565Z,7.30
2018-03-14T15:27:39.360Z,6.17
2018-03-14T15:30:07.854Z,6.50
2018-03-14T15:32:36.158Z,7.13
2018-03-14T15:35:07.452Z,6.73
2018-03-14T15:37:36.350Z,6.30
2018-03-14T15:40:08.246Z,7.50
2018-03-14T15:42:36.533Z,5.47
2018-03-14T15:45:06.479Z,5.23
2018-03-14T15:47:34.797Z,5.50
2018-03-14T15:50:06.701Z,4.63
2018-03-14T15:52:35.004Z,6.87
2018-03-14T15:55:07.098Z,6.50
2018-03-14T15:57:35.402Z,5.57
2018-03-14T16:00:06.618Z,5.47
2018-03-14T16:02:34.922Z,5.70
2018-03-14T16:05:07.021Z,8.40
2018-03-14T16:07:35.333Z,5.90
2018-03-14T16:10:07.440Z,5.63
2018-03-14T16:12:35.860Z,6.63
2018-03-14T16:15:05.801Z,5.00
2018-03-14T16:17:34.061Z,5.00
2018-03-14T16:20:09.094Z,5.50
2018-03-14T16:22:37.404Z,5.67
2018-03-14T16:25:05.677Z,4.97
2018-03-14T16:27:33.942Z,5.93
2018-03-14T16:30:09.154Z,6.43
2018-03-14T16:32:37.641Z,6.03
2018-03-14T16:35:05.949Z,4.63
2018-03-14T16:37:34.238Z,4.70
2018-03-14T16:40:05.660Z,4.63
2018-03-14T16:42:33.990Z,6.27
2018-03-14T16:45:09.195Z,5.17
2018-03-14T16:47:37.452Z,5.40
2018-03-14T16:50:06.251Z,6.37
2018-03-14T16:52:34.775Z,5.23
2018-03-14T16:55:05.816Z,5.53
2018-03-14T16:57:38.817Z,4.83
2018-03-14T17:00:07.076Z,4.87
2018-03-14T17:02:35.531Z,6.23
2018-03-14T17:05:05.750Z,7.13
2018-03-14T17:07:34.100Z,5.13
2018-03-14T17:10:05.449Z,5.27
2018-03-14T17:12:33.955Z,4.37
2018-03-14T17:15:08.960Z,4.13
2018-03-14T17:17:37.434Z,4.43
2018-03-14T17:20:06.415Z,7.87
2018-03-14T17:22:34.702Z,4.47
2018-03-14T17:25:06.518Z,6.33
2018-03-14T17:27:34.798Z,5.23
2018-03-14T17:30:09.497Z,4.63
2018-03-14T17:32:37.757Z,4.17
2018-03-14T17:35:06.066Z,7.20
2018-03-14T17:37:34.370Z,5.70
2018-03-14T17:40:06.421Z,4.50
2018-03-14T17:42:35.181Z,4.77
2018-03-14T17:45:07.005Z,5.97
2018-03-14T17:47:35.885Z,4.27
2018-03-14T17:50:05.795Z,6.50
2018-03-14T17:52:34.623Z,7.63
2018-03-14T17:55:06.652Z,4.00
2018-03-14T17:57:35.056Z,4.23
2018-03-14T18:00:06.957Z,6.17
2018-03-14T18:02:35.259Z,6.43
2018-03-14T18:05:06.566Z,4.77
2018-03-14T18:07:34.864Z,5.60
2018-03-14T18:10:06.290Z,6.37
2018-03-14T18:12:34.580Z,8.23
2018-03-14T18:15:05.628Z,8.57
2018-03-14T18:17:34.502Z,6.80
2018-03-14T18:20:06.192Z,6.93
2018-03-14T18:22:34.683Z,5.03
2018-03-14T18:25:06.798Z,7.83
2018-03-14T18:27:36.072Z,7.20
2018-03-14T18:30:07.338Z,5.17
2018-03-14T18:32:35.614Z,6.17
2018-03-14T18:35:07.589Z,7.20
2018-03-14T18:37:35.916Z,6.40
2018-03-14T18:40:07.822Z,7.87
2018-03-14T18:42:36.403Z,7.13
2018-03-14T18:45:07.630Z,6.73
2018-03-14T18:47:35.894Z,7.13
2018-03-14T18:50:05.971Z,9.93
2018-03-14T18:52:34.189Z,6.47
2018-03-14T18:55:05.588Z,6.83
2018-03-14T18:57:33.956Z,6.20
2018-03-14T19:00:05.281Z,8.43
2018-03-14T19:02:33.637Z,7.10
2018-03-14T19:05:05.546Z,7.67
2018-03-14T19:07:33.837Z,6.20
2018-03-14T19:10:05.539Z,6.33
2018-03-14T19:12:33.825Z,7.87
2018-03-14T19:15:05.661Z,7.37
2018-03-14T19:17:34.125Z,7.17
2018-03-14T19:20:09.289Z,6.10
2018-03-14T19:22:37.595Z,7.17
2018-03-14T19:25:05.901Z,6.20
2018-03-14T19:27:34.181Z,7.43
2018-03-14T19:30:06.064Z,7.70
2018-03-14T19:32:34.353Z,7.63
2018-03-14T19:35:05.940Z,6.67
2018-03-14T19:37:34.257Z,8.23
2018-03-14T19:40:05.614Z,7.10
2018-03-14T19:42:33.917Z,9.20
2018-03-14T19:45:05.150Z,9.83
2018-03-14T19:47:33.446Z,9.03
2018-03-14T19:50:08.207Z,7.83
2018-03-14T19:52:36.502Z,9.63
2018-03-14T19:55:06.026Z,9.40
2018-03-14T19:57:34.310Z,9.27
2018-03-14T20:00:09.392Z,10.47
2018-03-14T20:02:38.875Z,10.20
2018-03-14T20:05:07.141Z,9.60
2018-03-14T20:07:35.431Z,9.37
2018-03-14T20:10:07.357Z,10.00
2018-03-14T20:12:35.673Z,11.27
2018-03-14T20:15:07.082Z,10.93
2018-03-14T20:17:35.392Z,10.87
2018-03-14T20:20:07.045Z,10.43
2018-03-14T20:22:35.321Z,11.03
2018-03-14T20:25:07.411Z,11.33
2018-03-14T20:27:35.685Z,12.50
2018-03-14T20:30:07.114Z,13.83
2018-03-14T20:32:35.598Z,11.47
2018-03-14T20:35:06.925Z,12.47
2018-03-14T20:37:35.218Z,12.43
2018-03-14T20:40:06.971Z,13.03
2018-03-14T20:42:35.239Z,13.77
2018-03-14T20:45:06.023Z,16.40
2018-03-14T20:47:34.309Z,13.37
2018-03-14T20:50:06.216Z,13.67
2018-03-14T20:52:34.476Z,14.53
2018-03-14T20:55:08.478Z,14.67
2018-03-14T20:57:36.822Z,15.23
2018-03-14T21:00:06.555Z,15.60
2018-03-14T21:02:34.829Z,17.53
2018-03-14T21:05:06.292Z,16.03
2018-03-14T21:07:34.587Z,16.97
2018-03-14T21:10:06.017Z,17.50
2018-03-14T21:12:34.342Z,15.70
2018-03-14T21:15:06.388Z,15.33
2018-03-14T21:17:34.729Z,16.23
2018-03-14T21:20:05.955Z,15.97
2018-03-14T21:22:34.252Z,15.57
2018-03-14T21:25:05.824Z,15.30
2018-03-14T21:27:34.121Z,15.17
2018-03-14T21:30:05.881Z,16.93
2018-03-14T21:32:34.179Z,16.43
2018-03-14T21:35:08.102Z,17.63
2018-03-14T21:37:36.388Z,17.33
2018-03-14T21:40:06.098Z,16.10
2018-03-14T21:42:34.392Z,18.37
2018-03-14T21:45:06.113Z,17.27
2018-03-14T21:47:34.600Z,17.33
2018-03-14T21:50:05.941Z,18.40
2018-03-14T21:52:34.229Z,18.27
2018-03-14T21:55:06.637Z,18.47
2018-03-14T21:57:35.006Z,18.03
2018-03-14T22:00:06.999Z,18.63
2018-03-14T22:02:35.347Z,17.00
2018-03-14T22:05:07.873Z,18.77
2018-03-14T22:07:36.166Z,19.53
2018-03-14T22:10:07.890Z,19.40
2018-03-14T22:12:36.180Z,17.33
2018-03-14T22:15:07.536Z,20.73
2018-03-14T22:17:35.787Z,19.10
2018-03-14T22:20:07.108Z,19.73
2018-03-14T22:22:35.521Z,19.60
2018-03-14T22:25:06.980Z,21.63
2018-03-14T22:27:35.263Z,19.33
2018-03-14T22:30:06.836Z,17.73
2018-03-14T22:32:35.090Z,21.37
2018-03-14T22:35:06.758Z,19.43
2018-03-14T22:37:35.034Z,21.57
2018-03-14T22:40:05.982Z,21.50
2018-03-14T22:42:34.259Z,21.63
2018-03-14T22:45:08.129Z,21.60
2018-03-14T22:47:36.989Z,20.67
2018-03-14T22:50:06.457Z,19.07
2018-03-14T22:52:34.731Z,21.73
2018-03-14T22:55:06.106Z,20.90
2018-03-14T22:57:34.528Z,20.47
2018-03-14T23:00:06.702Z,20.50
2018-03-14T23:02:34.999Z,18.93
2018-03-14T23:05:06.521Z,20.73
2018-03-14T23:07:34.830Z,19.13
2018-03-14T23:10:06.686Z,20.33
2018-03-14T23:12:35.400Z,19.10
2018-03-14T23:15:07.306Z,20.00
2018-03-14T23:17:35.593Z,20.63
2018-03-14T23:20:06.903Z,17.93
2018-03-14T23:22:35.233Z,19.33
2018-03-14T23:25:05.983Z,18.30
2018-03-14T23:27:34.322Z,18.17
2018-03-14T23:30:07.576Z,20.57
2018-03-14T23:32:36.833Z,18.70
2018-03-14T23:35:06.788Z,19.57
2018-03-14T23:37:35.072Z,18.57
2018-03-14T23:40:06.389Z,19.40
2018-03-14T23:42:34.673Z,20.77
2018-03-14T23:45:08.775Z,21.57
2018-03-14T23:47:37.068Z,18.40
2018-03-14T23:50:06.353Z,19.20
2018-03-14T23:52:35.409Z,20.20
2018-03-14T23:55:07.694Z,19.30
2018-03-14T23:57:35.996Z,19.87
